Time;durP1;ratioP1;P1;durP2;ratioP2;P2;SDS_P1;SDS_P2;PMS_P1;PMS_P2;Temp;Humidity;BMP_temperature;BMP_pressure;BME280_temperature;BME280_humidity;BME280_pressure;Samples;Min_cycle;Max_cycle;Signal;HPM_P1;HPM_P2
2024/01/19 00:00:27;;;;;;;;;;;;;;;;;;6032249;23;89575;-70
2024/01/19 00:02:52;;;;;;;;;;;;;;;;;;6032399;23;89083;-69
2024/01/19 00:05:19;;;;;;;;;;;;;;;;;;6031428;23;89059;-68
2024/01/19 00:07:45;;;;;;;;;;;;;;;;;;6031800;23;91086;-71
2024/01/19 00:10:10;;;;;;;;;;;;;;;;;;6036183;23;89070;-70
2024/01/19 00:12:35;;;;;;;;;;;;;;;;;;6031581;23;89642;-71
2024/01/19 00:15:02;;;;;;;;;;;;;;;;;;6054542;23;91825;-67
2024/01/19 00:17:27;;;;;;;;;;;;;;;;;;6033194;23;89412;-72
2024/01/19 00:19:52;;;;;;;;;;;;;;;;;;6032114;23;89332;-70
2024/01/19 00:22:17;;;;;;;;;;;;;;;;;;6032270;23;89432;-74
2024/01/19 00:24:43;;;;;;;;;;;;;;;;;;6030550;23;89287;-71
2024/01/19 00:27:08;;;;;;;;;;;;;;;;;;6032376;23;89746;-71
2024/01/19 00:29:33;;;;;;;;;;;;;;;;;;6034732;23;89556;-68
2024/01/19 00:31:58;;;;;;;;;;;;;;;;;;6032336;23;89608;-70
2024/01/19 00:34:24;;;;;;;;;;;;;;;;;;6031775;23;89359;-69
2024/01/19 00:36:49;;;;;;;;;;;;;;;;;;6034201;23;89365;-69
2024/01/19 00:39:14;;;;;;;;;;;;;;;;;;6032276;23;89433;-74
2024/01/19 00:41:40;;;;;;;;;;;;;;;;;;6056956;23;90317;-67
2024/01/19 00:44:05;;;;;;;;;;;;;;;;;;6056964;23;89576;-71
2024/01/19 00:46:30;;;;;;;;;;;;;;;;;;6034119;23;91187;-70
2024/01/19 00:48:55;;;;;;;;;;;;;;;;;;6033556;23;89157;-71
2024/01/19 00:51:21;;;;;;;;;;;;;;;;;;6037965;23;89402;-68
2024/01/19 00:53:46;;;;;;;;;;;;;;;;;;6034127;23;89834;-70
2024/01/19 00:56:11;;;;;;;;;;;;;;;;;;6034002;23;89294;-66
2024/01/19 00:58:40;;;;;;;;;;;;;;;;;;6033401;23;89929;-71
2024/01/19 01:01:06;;;;;;;;;;;;;;;;;;6033786;23;90236;-70
2024/01/19 01:03:31;;;;;;;;;;;;;;;;;;6034296;23;90066;-67
2024/01/19 01:05:57;;;;;;;;;;;;;;;;;;6034087;23;89659;-70
2024/01/19 01:08:24;;;;;;;;;;;;;;;;;;6033907;23;89319;-68
2024/01/19 01:10:49;;;;;;;;;;;;;;;;;;6034459;23;89626;-68
2024/01/19 01:13:14;;;;;;;;;;;;;;;;;;6037061;23;90179;-68
2024/01/19 01:15:40;;;;;;;;;;;;;;;;;;6034373;23;89160;-69
2024/01/19 01:18:05;;;;;;;;;;;;;;;;;;6034816;23;90094;-71
2024/01/19 01:20:31;;;;;;;;;;;;;;;;;;6033706;23;90873;-67
2024/01/19 01:22:56;;;;;;;;;;;;;;;;;;6034142;23;89403;-68
2024/01/19 01:25:21;;;;;;;;;;;;;;;;;;6033720;23;88936;-68
2024/01/19 01:27:46;;;;;;;;;;;;;;;;;;6056416;23;89508;-66
2024/01/19 01:30:11;;;;;;;;;;;;;;;;;;6033794;23;89366;-64
2024/01/19 01:32:37;;;;;;;;;;;;;;;;;;6034189;23;89140;-65
2024/01/19 01:35:02;;;;;;;;;;;;;;;;;;6037471;23;89670;-64
2024/01/19 01:37:27;;;;;;;;;;;;;;;;;;6031488;23;92224;-66
2024/01/19 01:39:53;;;;;;;;;;;;;;;;;;6033236;23;89324;-65
2024/01/19 01:42:18;;;;;;;;;;;;;;;;;;6033824;23;89078;-68
2024/01/19 01:44:43;;;;;;;;;;;;;;;;;;6034524;23;89739;-67
2024/01/19 01:47:08;;;;;;;;;;;;;;;;;;6033601;23;89830;-65
2024/01/19 01:49:34;;;;;;;;;;;;;;;;;;6055677;23;89518;-64
2024/01/19 01:51:59;;;;;;;;;;;;;;;;;;6033577;23;90143;-64
2024/01/19 01:54:24;;;;;;;;;;;;;;;;;;6033376;23;89221;-67
2024/01/19 01:56:50;;;;;;;;;;;;;;;;;;6036579;23;89225;-72
2024/01/19 01:59:16;;;;;;;;;;;;;;;;;;6031474;23;90390;-67
2024/01/19 02:01:41;;;;;;;;;;;;;;;;;;6033809;23;89720;-72
2024/01/19 02:04:09;;;;;;;;;;;;;;;;;;6033877;23;90930;-70
2024/01/19 02:06:34;;;;;;;;;;;;;;;;;;6033211;23;89367;-70
2024/01/19 02:08:59;;;;;;;;;;;;;;;;;;6033653;23;89276;-68
2024/01/19 02:11:25;;;;;;;;;;;;;;;;;;6033918;23;89035;-68
2024/01/19 02:13:50;;;;;;;;;;;;;;;;;;6033639;23;89233;-70
2024/01/19 02:16:15;;;;;;;;;;;;;;;;;;6033717;23;89503;-72
2024/01/19 02:18:40;;;;;;;;;;;;;;;;;;6037723;23;89562;-71
2024/01/19 02:21:06;;;;;;;;;;;;;;;;;;6033783;23;89209;-68
2024/01/19 02:23:34;;;;;;;;;;;;;;;;;;6032222;23;89546;-71
2024/01/19 02:26:01;;;;;;;;;;;;;;;;;;6032258;23;89100;-68
2024/01/19 02:28:26;;;;;;;;;;;;;;;;;;6030565;23;89123;-67
2024/01/19 02:30:51;;;;;;;;;;;;;;;;;;6054390;23;91062;-74
2024/01/19 02:33:17;;;;;;;;;;;;;;;;;;6031857;23;91257;-72
2024/01/19 02:35:42;;;;;;;;;;;;;;;;;;6031802;23;89274;-71
2024/01/19 02:38:08;;;;;;;;;;;;;;;;;;6036343;23;89669;-72
2024/01/19 02:40:33;;;;;;;;;;;;;;;;;;6053937;23;88979;-66
2024/01/19 02:42:59;;;;;;;;;;;;;;;;;;6033010;23;89681;-67
2024/01/19 02:45:24;;;;;;;;;;;;;;;;;;6032117;23;89584;-66
2024/01/19 02:47:49;;;;;;;;;;;;;;;;;;6032923;23;89084;-69
2024/01/19 02:50:14;;;;;;;;;;;;;;;;;;6054965;23;92422;-68
2024/01/19 02:52:41;;;;;;;;;;;;;;;;;;6032591;23;89643;-69
2024/01/19 02:55:06;;;;;;;;;;;;;;;;;;6032205;23;89259;-68
2024/01/19 02:57:32;;;;;;;;;;;;;;;;;;6032037;23;89733;-67
2024/01/19 02:59:57;;;;;;;;;;;;;;;;;;6035607;23;89409;-65
2024/01/19 03:02:23;;;;;;;;;;;;;;;;;;6032167;23;89490;-68
2024/01/19 03:04:48;;;;;;;;;;;;;;;;;;6032205;23;90843;-68
2024/01/19 03:07:13;;;;;;;;;;;;;;;;;;6032699;23;89437;-69
2024/01/19 03:09:38;;;;;;;;;;;;;;;;;;6032105;23;90922;-65
2024/01/19 03:12:04;;;;;;;;;;;;;;;;;;6032141;23;89357;-65
2024/01/19 03:14:32;;;;;;;;;;;;;;;;;;6053679;23;91552;-71
2024/01/19 03:16:57;;;;;;;;;;;;;;;;;;6032275;23;90673;-68
2024/01/19 03:19:22;;;;;;;;;;;;;;;;;;6032657;23;89725;-66
2024/01/19 03:21:47;;;;;;;;;;;;;;;;;;6035955;23;89326;-64
2024/01/19 03:24:13;;;;;;;;;;;;;;;;;;6032033;23;89584;-67
2024/01/19 03:26:39;;;;;;;;;;;;;;;;;;6053587;23;90322;-64
2024/01/19 03:29:04;;;;;;;;;;;;;;;;;;6031721;23;89556;-64
2024/01/19 03:31:29;;;;;;;;;;;;;;;;;;6054212;23;91596;-65
2024/01/19 03:33:55;;;;;;;;;;;;;;;;;;6031945;23;89280;-65
2024/01/19 03:36:20;;;;;;;;;;;;;;;;;;6031424;23;89776;-70
2024/01/19 03:38:45;;;;;;;;;;;;;;;;;;6030878;23;89190;-69
2024/01/19 03:41:10;;;;;;;;;;;;;;;;;;6032211;23;89479;-65
2024/01/19 03:43:35;;;;;;;;;;;;;;;;;;6035043;23;90484;-65
2024/01/19 03:46:01;;;;;;;;;;;;;;;;;;6031334;23;89102;-68
2024/01/19 03:48:26;;;;;;;;;;;;;;;;;;6031433;23;90409;-64
2024/01/19 03:50:51;;;;;;;;;;;;;;;;;;6031443;23;89936;-63
2024/01/19 03:53:16;;;;;;;;;;;;;;;;;;6031601;23;89772;-66
2024/01/19 03:55:42;;;;;;;;;;;;;;;;;;6032226;23;89697;-65
2024/01/19 03:58:07;;;;;;;;;;;;;;;;;;6031559;23;89329;-66
2024/01/19 04:00:32;;;;;;;;;;;;;;;;;;6030979;23;88970;-65
2024/01/19 04:02:57;;;;;;;;;;;;;;;;;;6031338;23;89533;-65
2024/01/19 04:05:22;;;;;;;;;;;;;;;;;;6034389;23;89744;-65
2024/01/19 04:07:48;;;;;;;;;;;;;;;;;;6031352;23;89966;-69
2024/01/19 04:10:13;;;;;;;;;;;;;;;;;;6031647;23;89467;-67
2024/01/19 04:12:38;;;;;;;;;;;;;;;;;;6032731;23;89246;-66
2024/01/19 04:15:03;;;;;;;;;;;;;;;;;;6032773;23;89618;-69
2024/01/19 04:17:29;;;;;;;;;;;;;;;;;;6032632;23;89528;-65
2024/01/19 04:19:54;;;;;;;;;;;;;;;;;;6033259;23;89479;-64
2024/01/19 04:22:19;;;;;;;;;;;;;;;;;;6032493;23;90510;-64
2024/01/19 04:24:45;;;;;;;;;;;;;;;;;;6032325;23;90063;-66
2024/01/19 04:27:10;;;;;;;;;;;;;;;;;;6036241;23;89577;-64
2024/01/19 04:29:35;;;;;;;;;;;;;;;;;;6054795;23;90963;-69
2024/01/19 04:32:00;;;;;;;;;;;;;;;;;;6032485;23;89846;-71
2024/01/19 04:34:26;;;;;;;;;;;;;;;;;;6032352;23;89649;-69
2024/01/19 04:36:51;;;;;;;;;;;;;;;;;;6032749;23;89246;-64
2024/01/19 04:39:16;;;;;;;;;;;;;;;;;;6032125;23;89354;-67
2024/01/19 04:41:42;;;;;;;;;;;;;;;;;;6033047;23;90040;-65
2024/01/19 04:44:07;;;;;;;;;;;;;;;;;;6033438;23;89786;-71
2024/01/19 04:46:32;;;;;;;;;;;;;;;;;;6036226;23;88962;-68
2024/01/19 04:48:57;;;;;;;;;;;;;;;;;;6032654;23;89144;-68
2024/01/19 04:51:22;;;;;;;;;;;;;;;;;;6032066;23;89519;-66
2024/01/19 04:53:48;;;;;;;;;;;;;;;;;;6033029;23;89679;-66
2024/01/19 04:56:13;;;;;;;;;;;;;;;;;;6032405;23;89162;-65
2024/01/19 04:58:39;;;;;;;;;;;;;;;;;;6032897;23;89326;-67
2024/01/19 05:01:04;;;;;;;;;;;;;;;;;;6030694;23;92091;-67
2024/01/19 05:03:30;;;;;;;;;;;;;;;;;;6032746;23;89881;-68
2024/01/19 05:05:55;;;;;;;;;;;;;;;;;;6031947;23;89169;-68
2024/01/19 05:08:20;;;;;;;;;;;;;;;;;;6036823;23;90278;-65
2024/01/19 05:10:45;;;;;;;;;;;;;;;;;;6031959;23;89396;-70
2024/01/19 05:13:11;;;;;;;;;;;;;;;;;;6031156;23;90980;-66
2024/01/19 05:15:36;;;;;;;;;;;;;;;;;;6032194;23;89656;-68
2024/01/19 05:18:02;;;;;;;;;;;;;;;;;;6033138;23;90002;-64
2024/01/19 05:20:27;;;;;;;;;;;;;;;;;;6031596;23;91012;-63
2024/01/19 05:22:53;;;;;;;;;;;;;;;;;;6032017;23;90229;-63
2024/01/19 05:25:18;;;;;;;;;;;;;;;;;;6033099;23;89033;-64
2024/01/19 05:27:47;;;;;;;;;;;;;;;;;;6032413;23;89371;-65
2024/01/19 05:30:13;;;;;;;;;;;;;;;;;;6035078;23;89465;-66
2024/01/19 05:32:39;;;;;;;;;;;;;;;;;;6033170;23;90239;-69
2024/01/19 05:35:04;;;;;;;;;;;;;;;;;;6032192;23;89231;-69
2024/01/19 05:37:29;;;;;;;;;;;;;;;;;;6054719;23;89495;-65
2024/01/19 05:39:55;;;;;;;;;;;;;;;;;;6032147;23;89666;-68
2024/01/19 05:42:20;;;;;;;;;;;;;;;;;;6032283;23;90120;-67
2024/01/19 05:44:45;;;;;;;;;;;;;;;;;;6032687;23;90439;-68
2024/01/19 05:47:11;;;;;;;;;;;;;;;;;;6033056;23;89681;-73
2024/01/19 05:49:37;;;;;;;;;;;;;;;;;;6032316;23;90276;-67
2024/01/19 05:52:02;;;;;;;;;;;;;;;;;;6036090;23;89254;-67
2024/01/19 05:54:27;;;;;;;;;;;;;;;;;;6031662;23;89467;-67
2024/01/19 05:56:52;;;;;;;;;;;;;;;;;;6032312;23;89687;-65
2024/01/19 05:59:18;;;;;;;;;;;;;;;;;;6032089;23;89747;-67
2024/01/19 06:01:43;;;;;;;;;;;;;;;;;;6032302;23;89585;-64
2024/01/19 06:04:08;;;;;;;;;;;;;;;;;;6032197;23;89395;-64
2024/01/19 06:06:33;;;;;;;;;;;;;;;;;;6031627;23;89735;-64
2024/01/19 06:08:58;;;;;;;;;;;;;;;;;;6031747;23;89486;-65
2024/01/19 06:11:24;;;;;;;;;;;;;;;;;;6032158;23;89460;-70
2024/01/19 06:13:50;;;;;;;;;;;;;;;;;;6035100;23;89864;-69
2024/01/19 06:16:15;;;;;;;;;;;;;;;;;;6031169;23;89909;-66
2024/01/19 06:18:41;;;;;;;;;;;;;;;;;;6032767;23;89843;-66
2024/01/19 06:21:10;;;;;;;;;;;;;;;;;;6032838;23;91035;-70
2024/01/19 06:23:38;;;;;;;;;;;;;;;;;;6032290;23;89662;-69
2024/01/19 06:26:10;;;;;;;;;;;;;;;;;;6035246;23;90012;-74
2024/01/19 06:28:35;;;;;;;;;;;;;;;;;;6034298;23;90734;-69
2024/01/19 06:31:08;;;;;;;;;;;;;;;;;;6031419;23;89148;-64
2024/01/19 06:33:33;;;;;;;;;;;;;;;;;;6031377;23;89046;-66
2024/01/19 06:35:58;;;;;;;;;;;;;;;;;;6035423;23;89667;-68
2024/01/19 06:38:24;;;;;;;;;;;;;;;;;;6031558;23;91982;-70
2024/01/19 06:40:49;;;;;;;;;;;;;;;;;;6032036;23;89152;-70
2024/01/19 06:43:15;;;;;;;;;;;;;;;;;;6032485;23;89371;-67
2024/01/19 06:45:40;;;;;;;;;;;;;;;;;;6055247;23;93465;-67
2024/01/19 06:48:05;;;;;;;;;;;;;;;;;;6032979;23;89781;-67
2024/01/19 06:50:30;;;;;;;;;;;;;;;;;;6032386;23;90215;-67
2024/01/19 06:52:55;;;;;;;;;;;;;;;;;;6032253;23;89678;-65
2024/01/19 06:55:21;;;;;;;;;;;;;;;;;;6036117;23;90028;-73
2024/01/19 06:57:46;;;;;;;;;;;;;;;;;;6033307;23;89629;-70
2024/01/19 07:00:11;;;;;;;;;;;;;;;;;;6033161;23;89259;-66
2024/01/19 07:02:37;;;;;;;;;;;;;;;;;;6032946;23;89054;-65
2024/01/19 07:05:02;;;;;;;;;;;;;;;;;;6033712;23;89853;-68
2024/01/19 07:07:27;;;;;;;;;;;;;;;;;;6032493;23;89600;-66
2024/01/19 07:09:52;;;;;;;;;;;;;;;;;;6032823;23;89063;-69
2024/01/19 07:12:19;;;;;;;;;;;;;;;;;;6032415;23;89643;-67
2024/01/19 07:14:44;;;;;;;;;;;;;;;;;;6032253;23;89505;-66
2024/01/19 07:17:09;;;;;;;;;;;;;;;;;;6036462;23;89474;-65
2024/01/19 07:19:35;;;;;;;;;;;;;;;;;;6031815;23;89591;-71
2024/01/19 07:22:00;;;;;;;;;;;;;;;;;;6030767;23;89822;-66
2024/01/19 07:24:26;;;;;;;;;;;;;;;;;;6031222;23;90463;-68
2024/01/19 07:26:51;;;;;;;;;;;;;;;;;;6031862;23;89537;-68
2024/01/19 07:29:17;;;;;;;;;;;;;;;;;;6031511;23;89403;-67
2024/01/19 07:31:43;;;;;;;;;;;;;;;;;;6032296;23;89642;-69
2024/01/19 07:34:08;;;;;;;;;;;;;;;;;;6032195;23;89187;-68
2024/01/19 07:36:33;;;;;;;;;;;;;;;;;;6031202;23;88948;-68
2024/01/19 07:38:59;;;;;;;;;;;;;;;;;;6035550;23;89493;-66
2024/01/19 07:41:24;;;;;;;;;;;;;;;;;;6031687;23;89719;-67
2024/01/19 07:43:49;;;;;;;;;;;;;;;;;;6033187;23;90585;-67
2024/01/19 07:46:14;;;;;;;;;;;;;;;;;;6031353;23;89438;-68
2024/01/19 07:48:40;;;;;;;;;;;;;;;;;;6031980;23;89290;-69
2024/01/19 07:51:05;;;;;;;;;;;;;;;;;;6031769;23;89685;-76
2024/01/19 07:53:31;;;;;;;;;;;;;;;;;;6032166;23;90341;-72
2024/01/19 07:55:56;;;;;;;;;;;;;;;;;;6032298;23;89353;-69
2024/01/19 07:58:22;;;;;;;;;;;;;;;;;;6013899;23;90023;-66
2024/01/19 08:00:47;;;;;;;;;;;;;;;;;;6006338;23;89446;-69
2024/01/19 08:03:13;;;;;;;;;;;;;;;;;;6003084;23;89929;-67
2024/01/19 08:05:39;;;;;;;;;;;;;;;;;;6001934;23;90091;-67
2024/01/19 08:08:04;;;;;;;;;;;;;;;;;;6002847;23;88859;-71
2024/01/19 08:10:32;;;;;;;;;;;;;;;;;;6002620;23;90211;-66
2024/01/19 08:12:59;;;;;;;;;;;;;;;;;;6001260;23;90692;-67
2024/01/19 08:15:24;;;;;;;;;;;;;;;;;;6002595;23;89403;-68
2024/01/19 08:17:50;;;;;;;;;;;;;;;;;;6002904;23;90462;-67
2024/01/19 08:20:16;;;;;;;;;;;;;;;;;;6002657;23;90124;-67
2024/01/19 08:22:41;;;;;;;;;;;;;;;;;;6007574;23;89460;-68
2024/01/19 08:25:08;;;;;;;;;;;;;;;;;;6002235;23;90152;-68
2024/01/19 08:27:33;;;;;;;;;;;;;;;;;;6003111;23;89038;-70
2024/01/19 08:29:58;;;;;;;;;;;;;;;;;;6001817;23;90047;-69
2024/01/19 08:32:24;;;;;;;;;;;;;;;;;;6002473;23;89337;-69
2024/01/19 08:34:49;;;;;;;;;;;;;;;;;;6003147;23;89002;-76
2024/01/19 08:37:14;;;;;;;;;;;;;;;;;;6001359;23;89785;-68
2024/01/19 08:39:40;;;;;;;;;;;;;;;;;;6003204;23;89840;-71
2024/01/19 08:42:06;;;;;;;;;;;;;;;;;;6003357;23;89534;-70
2024/01/19 08:44:31;;;;;;;;;;;;;;;;;;6006823;23;88960;-66
2024/01/19 08:46:57;;;;;;;;;;;;;;;;;;6004660;23;89213;-68
2024/01/19 08:49:23;;;;;;;;;;;;;;;;;;6005232;23;90151;-75
2024/01/19 08:51:50;;;;;;;;;;;;;;;;;;6003878;23;89310;-67
2024/01/19 08:54:16;;;;;;;;;;;;;;;;;;6002876;23;89549;-67
2024/01/19 08:56:41;;;;;;;;;;;;;;;;;;6004575;23;89608;-72
2024/01/19 08:59:06;;;;;;;;;;;;;;;;;;6005069;23;89253;-68
2024/01/19 09:01:33;;;;;;;;;;;;;;;;;;6005555;23;89485;-69
2024/01/19 09:03:59;;;;;;;;;;;;;;;;;;6007211;23;92274;-70
2024/01/19 09:06:24;;;;;;;;;;;;;;;;;;6005761;23;89173;-71
2024/01/19 09:08:49;;;;;;;;;;;;;;;;;;6003785;23;90769;-70
2024/01/19 09:11:14;;;;;;;;;;;;;;;;;;6005846;23;89659;-72
2024/01/19 09:13:40;;;;;;;;;;;;;;;;;;6004483;23;89429;-71
2024/01/19 09:16:08;;;;;;;;;;;;;;;;;;6003259;23;89811;-70
2024/01/19 09:18:34;;;;;;;;;;;;;;;;;;6002857;23;90635;-71
2024/01/19 09:21:00;;;;;;;;;;;;;;;;;;6003020;23;89461;-73
2024/01/19 09:23:25;;;;;;;;;;;;;;;;;;6002178;23;92473;-75
2024/01/19 09:25:50;;;;;;;;;;;;;;;;;;6007374;23;89480;-71
2024/01/19 09:28:17;;;;;;;;;;;;;;;;;;6005457;23;89439;-71
2024/01/19 09:30:42;;;;;;;;;;;;;;;;;;6005186;23;89473;-75
2024/01/19 09:33:07;;;;;;;;;;;;;;;;;;6005307;23;89529;-73
2024/01/19 09:35:32;;;;;;;;;;;;;;;;;;6005667;23;89511;-74
2024/01/19 09:37:57;;;;;;;;;;;;;;;;;;6003152;23;92049;-71
2024/01/19 09:40:23;;;;;;;;;;;;;;;;;;6003516;23;91184;-72
2024/01/19 09:42:49;;;;;;;;;;;;;;;;;;6005063;23;89576;-72
2024/01/19 09:45:17;;;;;;;;;;;;;;;;;;6004873;23;89318;-72
2024/01/19 09:47:54;;;;;;;;;;;;;;;;;;6009232;23;89579;-71
2024/01/19 09:50:22;;;;;;;;;;;;;;;;;;6005068;23;89708;-69
2024/01/19 09:52:50;;;;;;;;;;;;;;;;;;6005176;23;88974;-74
2024/01/19 09:55:16;;;;;;;;;;;;;;;;;;6004559;23;89665;-73
2024/01/19 09:57:46;;;;;;;;;;;;;;;;;;6001783;23;92715;-71
2024/01/19 10:00:12;;;;;;;;;;;;;;;;;;6002923;23;89368;-73
2024/01/19 10:02:41;;;;;;;;;;;;;;;;;;6002809;23;89273;-73
2024/01/19 10:05:07;;;;;;;;;;;;;;;;;;6003078;23;90101;-72
2024/01/19 10:07:33;;;;;;;;;;;;;;;;;;6001793;23;89498;-69
2024/01/19 10:09:59;;;;;;;;;;;;;;;;;;6007379;23;89924;-71
2024/01/19 10:12:26;;;;;;;;;;;;;;;;;;6004295;23;89269;-73
2024/01/19 10:14:51;;;;;;;;;;;;;;;;;;6004760;23;89677;-70
2024/01/19 10:17:17;;;;;;;;;;;;;;;;;;6005207;23;89585;-75
2024/01/19 10:19:42;;;;;;;;;;;;;;;;;;6005178;23;89000;-74
2024/01/19 10:22:24;;;;;;;;;;;;;;;;;;6004559;23;89771;-68
2024/01/19 10:25:09;;;;;;;;;;;;;;;;;;6003881;23;89445;-70
2024/01/19 10:27:44;;;;;;;;;;;;;;;;;;6001120;23;89822;-71
2024/01/19 10:30:20;;;;;;;;;;;;;;;;;;6002052;23;89631;-75
2024/01/19 10:32:46;;;;;;;;;;;;;;;;;;6007011;23;89638;-70
2024/01/19 10:35:12;;;;;;;;;;;;;;;;;;6002259;23;92217;-69
2024/01/19 10:37:38;;;;;;;;;;;;;;;;;;6001865;23;90329;-71
2024/01/19 10:40:15;;;;;;;;;;;;;;;;;;6003130;23;89416;-79
2024/01/19 10:42:42;;;;;;;;;;;;;;;;;;6002575;23;90307;-73
2024/01/19 10:45:15;;;;;;;;;;;;;;;;;;6003887;23;90281;-69
2024/01/19 10:47:44;;;;;;;;;;;;;;;;;;6003593;23;90041;-78
2024/01/19 10:50:16;;;;;;;;;;;;;;;;;;6004278;23;90516;-75
2024/01/19 10:52:47;;;;;;;;;;;;;;;;;;6008998;23;89610;-72
2024/01/19 10:55:17;;;;;;;;;;;;;;;;;;6005090;23;88975;-75
2024/01/19 10:57:42;;;;;;;;;;;;;;;;;;6004457;23;89506;-72
2024/01/19 11:00:27;;;;;;;;;;;;;;;;;;6005872;23;90290;-76
2024/01/19 11:02:56;;;;;;;;;;;;;;;;;;6003957;23;88953;-70
2024/01/19 11:05:22;;;;;;;;;;;;;;;;;;6005236;23;90590;-72
2024/01/19 11:07:52;;;;;;;;;;;;;;;;;;6003756;23;89053;-72
2024/01/19 11:10:19;;;;;;;;;;;;;;;;;;6003559;23;89492;-75
2024/01/19 11:12:49;;;;;;;;;;;;;;;;;;6005324;23;89662;-74
2024/01/19 11:15:19;;;;;;;;;;;;;;;;;;6007405;23;90127;-72
2024/01/19 11:17:45;;;;;;;;;;;;;;;;;;6003076;23;89200;-76
2024/01/19 11:20:11;;;;;;;;;;;;;;;;;;6002703;23;89449;-74
2024/01/19 11:22:36;;;;;;;;;;;;;;;;;;6004351;23;89644;-75
2024/01/19 11:25:07;;;;;;;;;;;;;;;;;;6003891;23;89708;-74
2024/01/19 11:27:39;;;;;;;;;;;;;;;;;;6003664;23;90101;-78
2024/01/19 11:30:24;;;;;;;;;;;;;;;;;;6003232;23;90278;-78
2024/01/19 11:32:50;;;;;;;;;;;;;;;;;;6002025;23;89090;-73
2024/01/19 11:35:35;;;;;;;;;;;;;;;;;;6002204;23;89324;-74
2024/01/19 11:38:00;;;;;;;;;;;;;;;;;;6009058;23;90334;-76
2024/01/19 11:40:26;;;;;;;;;;;;;;;;;;6005698;23;89491;-73
2024/01/19 11:42:51;;;;;;;;;;;;;;;;;;6004248;23;91157;-72
2024/01/19 11:45:35;;;;;;;;;;;;;;;;;;6003667;23;89315;-69
2024/01/19 11:48:00;;;;;;;;;;;;;;;;;;6002468;23;89520;-73
2024/01/19 11:50:42;;;;;;;;;;;;;;;;;;6003294;23;89608;-74
2024/01/19 11:53:08;;;;;;;;;;;;;;;;;;6004254;23;89243;-75
2024/01/19 11:55:33;;;;;;;;;;;;;;;;;;6002962;23;89830;-74
2024/01/19 11:58:18;;;;;;;;;;;;;;;;;;6003753;23;90238;-75
2024/01/19 12:00:45;;;;;;;;;;;;;;;;;;6006182;23;90503;-70
2024/01/19 12:03:10;;;;;;;;;;;;;;;;;;6003355;23;89640;-73
2024/01/19 12:05:36;;;;;;;;;;;;;;;;;;6003914;23;89733;-74
2024/01/19 12:08:01;;;;;;;;;;;;;;;;;;6003007;23;90044;-71
2024/01/19 12:10:26;;;;;;;;;;;;;;;;;;6002788;23;89496;-70
2024/01/19 12:12:53;;;;;;;;;;;;;;;;;;6003209;23;89632;-71
2024/01/19 12:15:18;;;;;;;;;;;;;;;;;;6002058;23;89204;-73
2024/01/19 12:17:44;;;;;;;;;;;;;;;;;;6000600;23;92177;-73
2024/01/19 12:20:15;;;;;;;;;;;;;;;;;;6002924;23;90563;-70
2024/01/19 12:22:42;;;;;;;;;;;;;;;;;;6005831;23;89706;-70
2024/01/19 12:25:14;;;;;;;;;;;;;;;;;;6002988;23;89451;-70
2024/01/19 12:27:39;;;;;;;;;;;;;;;;;;6002549;23;89403;-72
2024/01/19 12:30:11;;;;;;;;;;;;;;;;;;6002310;23;90356;-71
2024/01/19 12:32:36;;;;;;;;;;;;;;;;;;6003291;23;90280;-68
2024/01/19 12:35:02;;;;;;;;;;;;;;;;;;6003302;23;89542;-69
2024/01/19 12:37:27;;;;;;;;;;;;;;;;;;6003632;23;88972;-72
2024/01/19 12:39:52;;;;;;;;;;;;;;;;;;6004169;23;89264;-72
2024/01/19 12:42:18;;;;;;;;;;;;;;;;;;6004931;23;89509;-70
2024/01/19 12:44:44;;;;;;;;;;;;;;;;;;6008818;23;90509;-70
2024/01/19 12:47:09;;;;;;;;;;;;;;;;;;6005523;23;89147;-68
2024/01/19 12:49:34;;;;;;;;;;;;;;;;;;6005377;23;89497;-73
2024/01/19 12:51:59;;;;;;;;;;;;;;;;;;6004523;23;89662;-73
2024/01/19 12:54:40;;;;;;;;;;;;;;;;;;6004858;23;89158;-71
2024/01/19 12:57:25;;;;;;;;;;;;;;;;;;6004559;23;90090;-73
2024/01/19 13:00:15;;;;;;;;;;;;;;;;;;6004619;23;89353;-73
2024/01/19 13:02:41;;;;;;;;;;;;;;;;;;6004417;23;88972;-73
2024/01/19 13:05:06;;;;;;;;;;;;;;;;;;6008017;23;89611;-72
2024/01/19 13:07:32;;;;;;;;;;;;;;;;;;6003904;23;90239;-72
2024/01/19 13:10:05;;;;;;;;;;;;;;;;;;6003947;23;89668;-74
2024/01/19 13:12:31;;;;;;;;;;;;;;;;;;6002684;23;91568;-70
2024/01/19 13:15:06;;;;;;;;;;;;;;;;;;6004152;23;89703;-73
2024/01/19 13:17:32;;;;;;;;;;;;;;;;;;6002369;23;92304;-71
2024/01/19 13:19:57;;;;;;;;;;;;;;;;;;6004525;23;89796;-71
2024/01/19 13:22:22;;;;;;;;;;;;;;;;;;6005109;23;88958;-72
2024/01/19 13:24:49;;;;;;;;;;;;;;;;;;6004181;23;89614;-74
2024/01/19 13:27:15;;;;;;;;;;;;;;;;;;6010352;23;89342;-76
2024/01/19 13:29:40;;;;;;;;;;;;;;;;;;6006942;23;89985;-71
2024/01/19 13:32:05;;;;;;;;;;;;;;;;;;6004422;23;89845;-74
2024/01/19 13:34:31;;;;;;;;;;;;;;;;;;6004743;23;89610;-74
2024/01/19 13:36:56;;;;;;;;;;;;;;;;;;6004460;23;90424;-74
2024/01/19 13:39:22;;;;;;;;;;;;;;;;;;6003792;23;89548;-75
2024/01/19 13:41:47;;;;;;;;;;;;;;;;;;6003885;23;89346;-73
2024/01/19 13:44:12;;;;;;;;;;;;;;;;;;6002564;23;90904;-74
2024/01/19 13:46:37;;;;;;;;;;;;;;;;;;6003887;23;89256;-73
2024/01/19 13:49:03;;;;;;;;;;;;;;;;;;6007705;23;88997;-73
2024/01/19 13:51:28;;;;;;;;;;;;;;;;;;6001423;23;92146;-73
2024/01/19 13:53:53;;;;;;;;;;;;;;;;;;6003061;23;89573;-73
2024/01/19 13:56:18;;;;;;;;;;;;;;;;;;6003279;23;89677;-73
2024/01/19 13:58:44;;;;;;;;;;;;;;;;;;6004833;23;89592;-71
2024/01/19 14:01:10;;;;;;;;;;;;;;;;;;6003555;23;89299;-75
2024/01/19 14:03:35;;;;;;;;;;;;;;;;;;6004506;23;89684;-72
2024/01/19 14:06:00;;;;;;;;;;;;;;;;;;6004292;23;89504;-73
2024/01/19 14:08:25;;;;;;;;;;;;;;;;;;6004055;23;89432;-73
2024/01/19 14:10:51;;;;;;;;;;;;;;;;;;6007433;23;90574;-74
2024/01/19 14:13:17;;;;;;;;;;;;;;;;;;6004421;23;89422;-72
2024/01/19 14:15:44;;;;;;;;;;;;;;;;;;6005512;23;89710;-73
2024/01/19 14:18:09;;;;;;;;;;;;;;;;;;6004488;23;90348;-75
2024/01/19 14:20:35;;;;;;;;;;;;;;;;;;6002417;23;89560;-71
2024/01/19 14:23:00;;;;;;;;;;;;;;;;;;6004063;23;89597;-69
2024/01/19 14:25:26;;;;;;;;;;;;;;;;;;6001244;23;90533;-71
2024/01/19 14:27:51;;;;;;;;;;;;;;;;;;6003248;23;89569;-72
2024/01/19 14:30:17;;;;;;;;;;;;;;;;;;6001330;23;89693;-71
2024/01/19 14:32:42;;;;;;;;;;;;;;;;;;6006081;23;89135;-70
2024/01/19 14:35:08;;;;;;;;;;;;;;;;;;6004398;23;89880;-70
2024/01/19 14:37:33;;;;;;;;;;;;;;;;;;6003059;23;90070;-70
2024/01/19 14:39:59;;;;;;;;;;;;;;;;;;6026608;23;89214;-69
2024/01/19 14:42:24;;;;;;;;;;;;;;;;;;6004670;23;89699;-70
2024/01/19 14:44:49;;;;;;;;;;;;;;;;;;6004665;23;89786;-69
2024/01/19 14:47:14;;;;;;;;;;;;;;;;;;6004519;23;89411;-69
2024/01/19 14:49:41;;;;;;;;;;;;;;;;;;6004737;23;89680;-69
2024/01/19 14:52:06;;;;;;;;;;;;;;;;;;6003036;23;90400;-69
2024/01/19 14:54:33;;;;;;;;;;;;;;;;;;6006984;23;89092;-69
2024/01/19 14:57:01;;;;;;;;;;;;;;;;;;6004504;23;89256;-69
2024/01/19 14:59:26;;;;;;;;;;;;;;;;;;6003681;23;89754;-70
2024/01/19 15:01:52;;;;;;;;;;;;;;;;;;6003900;23;90201;-70
2024/01/19 15:04:17;;;;;;;;;;;;;;;;;;6004579;23;89236;-71
2024/01/19 15:06:45;;;;;;;;;;;;;;;;;;6003019;23;88979;-72
2024/01/19 15:09:10;;;;;;;;;;;;;;;;;;6002907;23;93730;-72
2024/01/19 15:11:35;;;;;;;;;;;;;;;;;;6004791;23;90215;-71
2024/01/19 15:14:00;;;;;;;;;;;;;;;;;;6008206;23;89146;-72
2024/01/19 15:16:26;;;;;;;;;;;;;;;;;;6004664;23;89315;-74
2024/01/19 15:18:51;;;;;;;;;;;;;;;;;;6004987;23;89058;-71
2024/01/19 15:21:16;;;;;;;;;;;;;;;;;;6006189;23;90045;-71
2024/01/19 15:23:43;;;;;;;;;;;;;;;;;;6005968;23;89570;-71
2024/01/19 15:26:08;;;;;;;;;;;;;;;;;;6003174;23;90271;-70
2024/01/19 15:28:33;;;;;;;;;;;;;;;;;;6005032;23;89754;-69
2024/01/19 15:30:58;;;;;;;;;;;;;;;;;;6004779;23;89171;-72
2024/01/19 15:33:24;;;;;;;;;;;;;;;;;;6004501;23;89061;-73
2024/01/19 15:35:49;;;;;;;;;;;;;;;;;;6007857;23;89742;-70
2024/01/19 15:38:14;;;;;;;;;;;;;;;;;;6004870;23;89195;-73
2024/01/19 15:40:39;;;;;;;;;;;;;;;;;;6004449;23;89646;-69
2024/01/19 15:43:04;;;;;;;;;;;;;;;;;;6004444;23;89840;-69
2024/01/19 15:45:30;;;;;;;;;;;;;;;;;;6004734;23;89521;-72
2024/01/19 15:47:55;;;;;;;;;;;;;;;;;;6004685;23;90127;-69
2024/01/19 15:50:20;;;;;;;;;;;;;;;;;;6004377;23;90548;-68
2024/01/19 15:52:45;;;;;;;;;;;;;;;;;;6004116;23;89630;-70
2024/01/19 15:55:11;;;;;;;;;;;;;;;;;;6004947;23;89281;-68
2024/01/19 15:57:36;;;;;;;;;;;;;;;;;;6003225;23;90854;-70
2024/01/19 16:00:01;;;;;;;;;;;;;;;;;;6002081;23;90700;-70
2024/01/19 16:02:26;;;;;;;;;;;;;;;;;;6003456;23;91215;-67
2024/01/19 16:04:51;;;;;;;;;;;;;;;;;;6003869;23;89416;-67
2024/01/19 16:07:17;;;;;;;;;;;;;;;;;;6003374;23;90633;-70
2024/01/19 16:09:42;;;;;;;;;;;;;;;;;;6004474;23;89700;-67
2024/01/19 16:12:07;;;;;;;;;;;;;;;;;;6004335;23;89074;-68
2024/01/19 16:14:34;;;;;;;;;;;;;;;;;;6003503;23;89669;-66
2024/01/19 16:17:03;;;;;;;;;;;;;;;;;;6003428;23;89489;-66
2024/01/19 16:19:29;;;;;;;;;;;;;;;;;;6007251;23;89996;-66
2024/01/19 16:22:00;;;;;;;;;;;;;;;;;;6003902;23;89141;-66
2024/01/19 16:24:25;;;;;;;;;;;;;;;;;;6004097;23;88970;-70
2024/01/19 16:26:50;;;;;;;;;;;;;;;;;;6004149;23;89611;-69
2024/01/19 16:29:16;;;;;;;;;;;;;;;;;;6003342;23;89296;-67
2024/01/19 16:31:41;;;;;;;;;;;;;;;;;;6004366;23;89605;-67
2024/01/19 16:34:09;;;;;;;;;;;;;;;;;;6002425;23;92721;-68
2024/01/19 16:36:37;;;;;;;;;;;;;;;;;;6002422;23;89257;-68
2024/01/19 16:39:03;;;;;;;;;;;;;;;;;;6003641;23;88955;-66